createdAt,value
2018-09-03T00:01:54.257Z,97.29
2018-09-03T00:04:24.063Z,97.34
2018-09-03T00:06:53.887Z,96.42
2018-09-03T00:09:23.774Z,95.79
2018-09-03T00:11:53.624Z,94.18
2018-09-03T00:14:23.451Z,93.90
2018-09-03T00:16:53.443Z,93.35
2018-09-03T00:19:24.084Z,93.34
2018-09-03T00:21:53.945Z,93.22
2018-09-03T00:24:23.721Z,93.30
2018-09-03T00:26:53.606Z,93.18
2018-09-03T00:29:23.812Z,93.53
2018-09-03T00:31:59.038Z,92.07
2018-09-03T00:34:34.009Z,92.08
2018-09-03T00:37:09.031Z,91.10
2018-09-03T00:39:44.261Z,91.41
2018-09-03T00:42:19.900Z,91.80
2018-09-03T00:44:55.428Z,92.21
2018-09-03T00:47:25.305Z,91.72
2018-09-03T00:49:55.225Z,91.74
2018-09-03T00:52:25.421Z,91.60
2018-09-03T00:54:55.941Z,91.24
2018-09-03T00:57:25.757Z,90.51
2018-09-03T00:59:55.605Z,90.69
2018-09-03T01:02:25.549Z,91.81
2018-09-03T01:04:55.420Z,91.05
2018-09-03T01:07:26.117Z,91.14
2018-09-03T01:09:55.925Z,90.94
2018-09-03T01:12:25.780Z,91.49
2018-09-03T01:14:55.631Z,91.20
2018-09-03T01:17:25.460Z,91.66
2018-09-03T01:19:55.462Z,91.25
2018-09-03T01:22:25.342Z,91.00
2018-09-03T01:24:55.163Z,91.26
2018-09-03T01:27:25.001Z,91.17
2018-09-03T01:29:54.819Z,91.24
2018-09-03T01:32:24.815Z,91.55
2018-09-03T01:34:54.621Z,91.36
2018-09-03T01:37:24.477Z,91.33
2018-09-03T01:39:54.360Z,91.86
2018-09-03T01:42:24.384Z,92.90
2018-09-03T01:44:54.388Z,93.35
2018-09-03T01:47:24.197Z,93.71
2018-09-03T01:49:54.029Z,94.58
2018-09-03T01:52:23.853Z,95.36
2018-09-03T01:54:53.685Z,96.55
2018-09-03T01:57:23.551Z,97.02
2018-09-03T01:59:53.373Z,98.37
2018-09-03T02:02:25.004Z,98.56
2018-09-03T02:04:54.887Z,98.64
2018-09-03T02:07:24.799Z,98.87
2018-09-03T02:09:54.766Z,99.29
2018-09-03T02:12:25.123Z,99.57
2018-09-03T02:14:55.015Z,99.16
2018-09-03T02:17:25.063Z,99.11
2018-09-03T02:19:54.983Z,99.71
2018-09-03T02:22:25.443Z,99.80
2018-09-03T02:24:55.329Z,99.76
2018-09-03T02:27:25.145Z,99.57
2018-09-03T02:29:55.163Z,99.60
2018-09-03T02:32:24.995Z,99.17
2018-09-03T02:34:54.781Z,99.25
2018-09-03T02:37:24.700Z,98.90
2018-09-03T02:39:54.886Z,99.25
2018-09-03T02:42:25.098Z,97.43
2018-09-03T02:44:55.049Z,96.01
2018-09-03T02:47:25.617Z,96.98
2018-09-03T02:49:55.582Z,96.80
2018-09-03T02:52:26.210Z,97.09
2018-09-03T02:54:56.139Z,97.25
2018-09-03T02:57:26.172Z,97.23
2018-09-03T02:59:56.722Z,97.38
2018-09-03T03:02:26.706Z,97.05
2018-09-03T03:04:56.803Z,97.01
2018-09-03T03:07:27.397Z,96.86
2018-09-03T03:09:57.257Z,96.95
2018-09-03T03:12:27.177Z,96.73
2018-09-03T03:14:58.012Z,97.16
2018-09-03T03:17:28.034Z,95.11
2018-09-03T03:19:57.996Z,95.37
2018-09-03T03:22:27.921Z,94.63
2018-09-03T03:24:57.791Z,94.73
2018-09-03T03:27:27.764Z,95.18
2018-09-03T03:33:34.004Z,94.58
2018-09-03T03:36:04.604Z,94.81
2018-09-03T03:38:34.503Z,94.37
2018-09-03T03:41:06.183Z,93.91
2018-09-03T03:43:36.380Z,94.43
2018-09-03T03:46:06.426Z,94.65
2018-09-03T03:48:36.455Z,95.07
2018-09-03T03:51:06.532Z,95.10
2018-09-03T03:53:36.436Z,94.67
2018-09-03T03:56:06.407Z,94.26
2018-09-03T03:58:36.465Z,94.77
2018-09-03T04:01:06.518Z,94.31
2018-09-03T04:03:36.418Z,94.67
2018-09-03T04:06:06.338Z,93.67
2018-09-03T04:08:36.162Z,93.84
2018-09-03T04:11:07.050Z,94.21
2018-09-03T04:13:36.890Z,94.47
2018-09-03T04:16:07.148Z,95.08
2018-09-03T04:18:37.445Z,95.10
2018-09-03T04:21:08.291Z,95.78
2018-09-03T04:23:38.816Z,97.20
2018-09-03T04:26:08.739Z,97.94
2018-09-03T04:28:38.730Z,97.92
2018-09-03T04:31:08.806Z,97.76
2018-09-03T04:33:38.799Z,98.14
2018-09-03T04:36:08.806Z,98.19
2018-09-03T04:38:38.798Z,98.21
2018-09-03T04:41:09.687Z,98.35
2018-09-03T04:43:40.065Z,98.73
2018-09-03T04:46:10.051Z,98.64
2018-09-03T04:48:40.291Z,98.55
2018-09-03T04:51:10.450Z,98.57
2018-09-03T04:53:40.431Z,98.42
2018-09-03T04:56:10.383Z,97.88
2018-09-03T04:58:40.345Z,97.97
2018-09-03T05:01:10.314Z,97.62
2018-09-03T05:03:40.517Z,97.33
2018-09-03T05:06:10.705Z,97.03
2018-09-03T05:08:41.537Z,96.88
2018-09-03T05:11:11.505Z,97.33
2018-09-03T05:13:41.303Z,97.16
2018-09-03T05:16:11.196Z,97.19
2018-09-03T05:18:41.075Z,97.96
2018-09-03T05:21:11.094Z,98.00
2018-09-03T05:23:41.119Z,97.76
2018-09-03T05:26:10.987Z,97.64
2018-09-03T05:28:40.811Z,97.63
2018-09-03T05:31:10.602Z,97.96
2018-09-03T05:33:41.357Z,97.05
2018-09-03T05:36:11.557Z,96.21
2018-09-03T05:38:41.389Z,96.25
2018-09-03T05:41:11.147Z,96.42
2018-09-03T05:43:41.031Z,96.00
2018-09-03T05:46:11.288Z,95.99
2018-09-03T05:48:41.134Z,95.54
2018-09-03T05:51:10.949Z,95.23
2018-09-03T05:53:40.708Z,95.49
2018-09-03T05:56:10.900Z,95.30
2018-09-03T05:58:40.754Z,93.86
2018-09-03T06:01:11.221Z,93.80
2018-09-03T06:03:41.031Z,93.26
2018-09-03T06:06:11.408Z,92.49
2018-09-03T06:08:41.337Z,91.42
2018-09-03T06:11:11.555Z,91.46
2018-09-03T06:13:41.503Z,88.13
2018-09-03T06:16:11.333Z,87.01
2018-09-03T06:18:41.196Z,88.15
2018-09-03T06:21:11.093Z,87.88
2018-09-03T06:23:40.887Z,88.54
2018-09-03T06:26:10.739Z,89.32
2018-09-03T06:28:40.549Z,90.23
2018-09-03T06:31:11.112Z,90.26
2018-09-03T06:33:41.003Z,91.21
2018-09-03T06:36:10.871Z,92.05
2018-09-03T06:38:40.723Z,92.68
2018-09-03T06:41:10.635Z,92.67
2018-09-03T06:43:41.103Z,92.79
2018-09-03T06:46:10.943Z,92.84
2018-09-03T06:48:41.503Z,93.88
2018-09-03T06:51:11.409Z,94.48
2018-09-03T06:53:41.216Z,94.50
2018-09-03T06:56:10.995Z,94.28
2018-09-03T06:58:41.111Z,94.18
2018-09-03T07:01:11.047Z,93.90
2018-09-03T07:03:40.844Z,93.89
2018-09-03T07:06:10.640Z,94.12
2018-09-03T07:08:41.003Z,93.83
2018-09-03T07:11:11.790Z,94.31
2018-09-03T07:13:41.633Z,93.29
2018-09-03T07:16:11.469Z,93.76
2018-09-03T07:18:41.447Z,93.36
2018-09-03T07:21:11.422Z,93.12
2018-09-03T07:23:41.239Z,92.67
2018-09-03T07:26:11.049Z,91.76
2018-09-03T07:28:41.118Z,91.19
2018-09-03T07:31:11.079Z,91.15
2018-09-03T07:33:41.580Z,90.05
2018-09-03T07:36:11.369Z,89.08
2018-09-03T07:38:41.377Z,89.49
2018-09-03T07:41:11.534Z,89.97
2018-09-03T07:43:41.453Z,89.30
2018-09-03T07:46:11.271Z,89.32
2018-09-03T07:48:41.087Z,87.90
2018-09-03T07:51:10.925Z,87.60
2018-09-03T07:53:40.915Z,87.56
2018-09-03T07:56:10.709Z,87.16
2018-09-03T07:58:40.576Z,86.95
2018-09-03T08:01:10.888Z,86.48
2018-09-03T08:03:40.833Z,86.32
2018-09-03T08:06:11.111Z,85.81
2018-09-03T08:08:40.932Z,85.22
2018-09-03T08:11:10.824Z,84.19
2018-09-03T08:13:41.862Z,85.04
2018-09-03T08:16:12.304Z,83.15
2018-09-03T08:18:42.452Z,85.25
2018-09-03T08:21:12.214Z,85.41
2018-09-03T08:23:42.092Z,85.18
2018-09-03T08:26:11.838Z,84.77
2018-09-03T08:28:41.949Z,84.76
2018-09-03T08:31:11.766Z,85.11
2018-09-03T08:33:41.534Z,85.36
2018-09-03T08:36:11.314Z,85.28
2018-09-03T08:38:41.114Z,83.65
2018-09-03T08:41:11.034Z,83.72
2018-09-03T08:43:40.933Z,83.65
2018-09-03T08:46:10.711Z,83.54
2018-09-03T08:48:40.538Z,83.15
2018-09-03T08:51:10.329Z,82.68
2018-09-03T08:53:40.496Z,82.57
2018-09-03T08:56:10.367Z,81.66
2018-09-03T08:58:40.257Z,79.92
2018-09-03T09:01:10.060Z,79.52
2018-09-03T09:03:41.591Z,78.55
2018-09-03T09:06:11.924Z,78.55
2018-09-03T09:08:41.959Z,78.55
2018-09-03T09:11:11.849Z,78.82
2018-09-03T09:13:41.969Z,78.86
2018-09-03T09:16:11.776Z,76.62
2018-09-03T09:18:41.604Z,75.02
2018-09-03T09:21:11.431Z,75.07
2018-09-03T09:23:41.199Z,72.40
2018-09-03T09:26:11.011Z,73.28
2018-09-03T09:28:41.439Z,72.38
2018-09-03T09:31:11.916Z,72.07
2018-09-03T09:33:42.737Z,71.45
2018-09-03T09:36:13.097Z,70.62
2018-09-03T09:38:43.474Z,70.55
2018-09-03T09:41:13.828Z,71.84
2018-09-03T09:43:43.861Z,70.89
2018-09-03T09:46:13.677Z,71.93
2018-09-03T09:48:43.736Z,72.06
2018-09-03T09:51:13.808Z,72.63
2018-09-03T09:53:43.700Z,72.67
2018-09-03T09:56:13.584Z,70.16
2018-09-03T09:58:43.482Z,70.13
2018-09-03T10:01:18.266Z,70.01
2018-09-03T10:03:48.160Z,70.38
2018-09-03T10:06:17.934Z,70.16
2018-09-03T10:08:47.882Z,69.09
2018-09-03T10:11:17.668Z,69.13
2018-09-03T10:13:47.554Z,69.03
2018-09-03T10:16:18.202Z,68.51
2018-09-03T10:18:48.065Z,67.48
2018-09-03T10:21:18.487Z,67.06
2018-09-03T10:23:48.951Z,66.40
2018-09-03T10:26:19.390Z,64.05
2018-09-03T10:28:50.142Z,64.74
2018-09-03T10:31:20.571Z,63.51
2018-09-03T10:33:51.135Z,61.26
2018-09-03T10:36:21.612Z,59.85
2018-09-03T10:38:51.921Z,60.15
2018-09-03T10:41:22.353Z,61.77
2018-09-03T10:43:52.875Z,61.24
2018-09-03T10:46:23.215Z,61.31
2018-09-03T10:48:53.529Z,59.81
2018-09-03T10:51:23.957Z,58.92
2018-09-03T10:53:54.485Z,58.60
2018-09-03T10:56:24.877Z,58.07
2018-09-03T10:58:55.233Z,55.17
2018-09-03T11:01:26.235Z,55.88
2018-09-03T11:03:56.543Z,53.08
2018-09-03T11:06:26.881Z,53.77
2018-09-03T11:08:57.261Z,54.77
2018-09-03T11:11:27.629Z,55.54
2018-09-03T11:13:57.965Z,55.04
2018-09-03T11:16:28.251Z,55.09
2018-09-03T11:18:58.551Z,54.16
2018-09-03T11:21:29.197Z,53.96
2018-09-03T11:23:59.638Z,50.64
2018-09-03T11:26:30.139Z,52.88
2018-09-03T11:29:00.598Z,52.48
2018-09-03T11:31:30.943Z,52.10
2018-09-03T11:34:01.263Z,54.08
2018-09-03T11:36:31.566Z,52.98
2018-09-03T11:39:02.239Z,53.55
2018-09-03T11:41:32.573Z,54.87
2018-09-03T11:44:03.018Z,53.05
2018-09-03T11:46:33.694Z,48.87
2018-09-03T11:49:04.147Z,52.68
2018-09-03T11:51:34.566Z,53.15
2018-09-03T11:54:05.322Z,54.52
2018-09-03T11:56:36.069Z,55.11
2018-09-03T11:59:06.680Z,57.13
2018-09-03T12:01:37.036Z,57.65
2018-09-03T12:04:07.738Z,59.09
2018-09-03T12:06:38.140Z,60.46
2018-09-03T12:09:10.700Z,61.65
2018-09-03T12:11:41.306Z,62.93
2018-09-03T12:14:20.604Z,63.43
2018-09-03T12:16:51.031Z,63.33
2018-09-03T12:19:21.405Z,64.44
2018-09-03T12:21:51.777Z,64.00
2018-09-03T12:24:22.536Z,63.49
2018-09-03T12:26:52.922Z,63.73
2018-09-03T12:29:23.548Z,63.65
2018-09-03T12:31:53.964Z,62.55
2018-09-03T12:34:24.348Z,62.80
2018-09-03T12:36:54.751Z,62.84
2018-09-03T12:39:25.280Z,62.72
2018-09-03T12:41:55.684Z,61.96
2018-09-03T12:44:26.013Z,61.45
2018-09-03T12:46:56.350Z,60.51
2018-09-03T12:49:26.704Z,60.20
2018-09-03T12:51:57.065Z,58.62
2018-09-03T12:54:27.395Z,55.97
2018-09-03T12:56:57.954Z,55.40
2018-09-03T12:59:28.341Z,54.19
2018-09-03T13:01:58.738Z,54.12
2018-09-03T13:04:29.169Z,54.94
2018-09-03T13:06:59.696Z,53.56
2018-09-03T13:09:30.446Z,53.16
2018-09-03T13:12:00.912Z,52.25
2018-09-03T13:14:31.656Z,52.48
2018-09-03T13:17:02.372Z,53.04
2018-09-03T13:19:32.722Z,53.27
2018-09-03T13:22:03.070Z,53.68
2018-09-03T13:24:33.473Z,54.46
2018-09-03T13:27:04.004Z,55.95
2018-09-03T13:29:34.527Z,54.02
2018-09-03T13:32:04.903Z,54.36
2018-09-03T13:34:35.524Z,53.84
2018-09-03T13:37:06.640Z,53.59
2018-09-03T13:39:36.982Z,53.43
2018-09-03T13:42:07.813Z,53.29
2018-09-03T13:44:38.265Z,52.50
2018-09-03T13:47:08.606Z,52.44
2018-09-03T13:49:38.939Z,52.94
2018-09-03T13:52:09.300Z,53.51
2018-09-03T13:54:39.662Z,54.77
2018-09-03T13:57:10.186Z,54.59
2018-09-03T13:59:40.606Z,51.82
2018-09-03T14:02:11.318Z,51.89
2018-09-03T14:04:41.638Z,51.17
2018-09-03T14:07:12.494Z,53.49
2018-09-03T14:09:43.046Z,51.50
2018-09-03T14:12:13.667Z,51.22
2018-09-03T14:14:44.183Z,49.76
2018-09-03T14:17:14.615Z,49.34
2018-09-03T14:19:44.960Z,48.84
2018-09-03T14:22:15.380Z,48.99
2018-09-03T14:24:45.926Z,50.71
2018-09-03T14:27:16.276Z,50.32
2018-09-03T14:29:46.602Z,50.02
2018-09-03T14:32:16.989Z,50.83
2018-09-03T14:34:47.314Z,50.80
2018-09-03T14:37:17.620Z,52.28
2018-09-03T14:39:47.980Z,52.37
2018-09-03T14:42:18.314Z,51.32
2018-09-03T14:44:48.663Z,50.39
2018-09-03T14:47:19.032Z,50.02
2018-09-03T14:49:49.454Z,49.23
2018-09-03T14:52:20.040Z,48.97
2018-09-03T14:54:50.407Z,49.70
2018-09-03T14:57:20.765Z,49.32
2018-09-03T14:59:51.141Z,48.33
2018-09-03T15:02:21.582Z,48.81
2018-09-03T15:04:52.484Z,47.77
2018-09-03T15:07:22.861Z,48.93
2018-09-03T15:09:53.204Z,48.33
2018-09-03T15:12:23.569Z,48.30
2018-09-03T15:14:54.066Z,48.45
2018-09-03T15:17:24.642Z,49.09
2018-09-03T15:19:54.952Z,49.66
2018-09-03T15:22:25.279Z,49.26
2018-09-03T15:24:55.635Z,49.41
2018-09-03T15:27:26.041Z,50.76
2018-09-03T15:29:56.486Z,50.06
2018-09-03T15:32:27.183Z,50.24
2018-09-03T15:34:57.545Z,50.26
2018-09-03T15:37:28.017Z,50.65
2018-09-03T15:39:58.394Z,50.50
2018-09-03T15:42:28.793Z,50.25
2018-09-03T15:44:59.187Z,50.66
2018-09-03T15:47:29.592Z,50.94
2018-09-03T15:50:00.115Z,51.00
2018-09-03T15:52:30.399Z,51.30
2018-09-03T15:55:00.781Z,50.40
2018-09-03T15:57:31.149Z,49.29
2018-09-03T16:00:01.470Z,49.96
2018-09-03T16:02:31.859Z,51.20
2018-09-03T16:05:02.155Z,50.46
2018-09-03T16:07:32.511Z,51.27
2018-09-03T16:10:02.880Z,53.67
2018-09-03T16:12:33.513Z,51.70
2018-09-03T16:15:03.931Z,54.35
2018-09-03T16:17:34.323Z,55.89
2018-09-03T16:20:05.289Z,54.78
2018-09-03T16:22:35.741Z,55.86
2018-09-03T16:25:06.520Z,54.36
2018-09-03T16:27:36.914Z,56.53
2018-09-03T16:30:07.526Z,58.22
2018-09-03T16:32:38.538Z,57.37
2018-09-03T16:35:09.120Z,57.90
2018-09-03T16:37:39.509Z,58.23
2018-09-03T16:40:10.660Z,57.48
2018-09-03T16:42:41.182Z,57.11
2018-09-03T16:45:12.067Z,58.29
2018-09-03T16:47:42.620Z,58.59
2018-09-03T16:50:13.215Z,58.92
2018-09-03T16:52:43.674Z,58.29
2018-09-03T16:55:14.117Z,58.70
2018-09-03T16:57:44.529Z,59.60
2018-09-03T17:00:14.960Z,60.73
2018-09-03T17:02:45.370Z,60.73
2018-09-03T17:05:16.053Z,61.82
2018-09-03T17:07:46.513Z,61.46
2018-09-03T17:10:17.175Z,59.72
2018-09-03T17:12:47.621Z,61.40
2018-09-03T17:15:18.028Z,62.78
2018-09-03T17:17:48.429Z,62.94
2018-09-03T17:20:19.005Z,63.18
2018-09-03T17:22:49.443Z,63.15
2018-09-03T17:25:19.854Z,62.58
2018-09-03T17:27:50.237Z,61.54
2018-09-03T17:30:21.186Z,61.57
2018-09-03T17:32:51.783Z,62.67
2018-09-03T17:35:22.491Z,63.90
2018-09-03T17:37:52.887Z,64.07
2018-09-03T17:40:23.297Z,64.81
2018-09-03T17:42:53.767Z,64.83
2018-09-03T17:45:24.223Z,65.29
2018-09-03T17:47:54.673Z,65.54
2018-09-03T17:50:25.088Z,66.16
2018-09-03T17:52:55.528Z,66.09
2018-09-03T17:55:26.146Z,67.27
2018-09-03T17:57:56.600Z,67.39
2018-09-03T18:00:27.225Z,67.81
2018-09-03T18:02:57.590Z,68.48
2018-09-03T18:05:27.940Z,68.33
2018-09-03T18:07:58.226Z,68.41
2018-09-03T18:10:28.524Z,68.53
2018-09-03T18:12:59.407Z,68.32
2018-09-03T18:15:29.818Z,67.86
2018-09-03T18:18:00.348Z,68.05
2018-09-03T18:20:30.764Z,67.29
2018-09-03T18:23:01.225Z,65.73
2018-09-03T18:25:31.628Z,68.81
2018-09-03T18:28:02.236Z,71.36
2018-09-03T18:30:32.914Z,70.47
2018-09-03T18:33:03.387Z,70.18
2018-09-03T18:35:33.240Z,70.44
2018-09-03T18:38:03.730Z,70.75
2018-09-03T18:40:34.501Z,70.84
2018-09-03T18:43:05.830Z,70.04
2018-09-03T18:45:36.198Z,70.76
2018-09-03T18:48:06.884Z,70.76
2018-09-03T18:50:37.610Z,70.96
2018-09-03T18:53:08.266Z,71.11
2018-09-03T18:55:38.681Z,70.76
2018-09-03T18:58:09.134Z,69.99
2018-09-03T19:00:39.781Z,69.67
2018-09-03T19:03:10.530Z,70.42
2018-09-03T19:05:41.398Z,70.63
2018-09-03T19:08:12.134Z,70.99
2018-09-03T19:10:42.570Z,71.26
2018-09-03T19:13:13.304Z,72.04
2018-09-03T19:15:43.992Z,72.29
2018-09-03T19:18:14.416Z,71.91
2018-09-03T19:20:45.692Z,72.05
2018-09-03T19:23:16.480Z,72.56
2018-09-03T19:25:47.232Z,72.47
2018-09-03T19:28:17.920Z,72.70
2018-09-03T19:30:48.748Z,72.79
2018-09-03T19:33:19.428Z,73.14
2018-09-03T19:35:50.524Z,73.58
2018-09-03T19:38:20.988Z,73.93
2018-09-03T19:40:51.316Z,73.85
2018-09-03T19:43:21.642Z,74.49
2018-09-03T19:45:52.010Z,74.37
2018-09-03T19:48:23.090Z,74.88
2018-09-03T19:50:52.928Z,75.11
2018-09-03T19:53:23.326Z,75.29
2018-09-03T19:55:54.062Z,75.49
2018-09-03T19:58:25.011Z,75.68
2018-09-03T20:00:55.160Z,75.96
2018-09-03T20:03:25.024Z,77.25
2018-09-03T20:05:54.908Z,77.78
2018-09-03T20:08:24.951Z,78.43
2018-09-03T20:10:55.065Z,78.34
2018-09-03T20:13:25.332Z,78.80
2018-09-03T20:15:55.342Z,78.75
2018-09-03T20:18:25.154Z,78.24
2018-09-03T20:20:55.306Z,78.24
2018-09-03T20:23:25.183Z,78.44
2018-09-03T20:25:55.453Z,77.66
2018-09-03T20:28:25.459Z,78.00
2018-09-03T20:30:55.812Z,77.10
2018-09-03T20:33:25.870Z,77.92
2018-09-03T20:35:55.734Z,78.64
2018-09-03T20:38:25.710Z,78.89
2018-09-03T20:40:55.534Z,79.13
2018-09-03T20:43:25.411Z,79.17
2018-09-03T20:45:55.410Z,79.83
2018-09-03T20:48:25.299Z,79.63
2018-09-03T20:50:55.114Z,79.65
2018-09-03T20:53:25.022Z,79.51
2018-09-03T20:55:54.951Z,78.93
2018-09-03T20:58:24.846Z,79.63
2018-09-03T21:00:55.490Z,79.70
2018-09-03T21:03:25.330Z,80.00
2018-09-03T21:05:55.210Z,79.99
2018-09-03T21:08:25.195Z,80.37
2018-09-03T21:10:55.235Z,80.17
2018-09-03T21:13:25.056Z,79.78
2018-09-03T21:15:54.866Z,80.48
2018-09-03T21:18:24.672Z,80.37
2018-09-03T21:21:58.470Z,79.93
2018-09-03T21:24:28.406Z,79.91
2018-09-03T21:26:58.522Z,79.74
2018-09-03T21:29:28.290Z,79.79
2018-09-03T21:31:58.194Z,81.20
2018-09-03T21:34:28.012Z,82.41
2018-09-03T21:36:57.813Z,83.67
2018-09-03T21:39:27.633Z,83.86
2018-09-03T21:41:57.414Z,83.73
2018-09-03T21:44:27.407Z,83.60
2018-09-03T21:46:57.195Z,83.75
2018-09-03T21:49:27.448Z,83.30
2018-09-03T21:51:57.343Z,83.19
2018-09-03T21:54:27.297Z,82.57
2018-09-03T21:56:57.051Z,83.06
2018-09-03T21:59:26.843Z,82.96
2018-09-03T22:01:56.724Z,82.92
2018-09-03T22:04:26.545Z,82.38
2018-09-03T22:06:56.341Z,82.63
2018-09-03T22:09:26.147Z,82.94
2018-09-03T22:11:55.971Z,82.71
2018-09-03T22:14:25.895Z,82.36
2018-09-03T22:16:55.683Z,82.05
2018-09-03T22:19:25.508Z,83.74
2018-09-03T22:21:55.427Z,84.00
2018-09-03T22:24:25.639Z,84.70
2018-09-03T22:26:56.116Z,85.06
2018-09-03T22:29:26.042Z,84.60
2018-09-03T22:31:55.812Z,85.00
2018-09-03T22:34:25.738Z,85.62
2018-09-03T22:36:56.233Z,85.86
2018-09-03T22:39:26.467Z,85.03
2018-09-03T22:41:56.312Z,84.88
2018-09-03T22:44:26.129Z,84.68
2018-09-03T22:46:55.952Z,83.84
2018-09-03T22:49:25.764Z,84.98
2018-09-03T22:51:55.632Z,83.90
2018-09-03T22:54:25.698Z,84.41
2018-09-03T22:56:55.548Z,85.36
2018-09-03T22:59:25.483Z,86.02
2018-09-03T23:01:55.299Z,86.37
2018-09-03T23:04:25.230Z,85.93
2018-09-03T23:06:55.030Z,87.25
2018-09-03T23:09:24.846Z,88.56
2018-09-03T23:11:55.044Z,88.70
2018-09-03T23:14:24.842Z,89.41
2018-09-03T23:16:55.020Z,89.56
2018-09-03T23:19:24.816Z,89.57
2018-09-03T23:21:54.908Z,89.47
2018-09-03T23:24:24.868Z,88.86
2018-09-03T23:26:54.645Z,87.43
2018-09-03T23:29:24.512Z,87.22
2018-09-03T23:31:54.640Z,86.81
2018-09-03T23:34:24.828Z,85.56
2018-09-03T23:36:54.712Z,85.83
2018-09-03T23:39:24.562Z,85.72
2018-09-03T23:41:54.424Z,86.40
2018-09-03T23:44:24.552Z,86.40
2018-09-03T23:46:54.330Z,86.59
2018-09-03T23:49:24.091Z,86.10
2018-09-03T23:51:53.906Z,85.81
2018-09-03T23:54:23.647Z,86.22
2018-09-03T23:56:53.529Z,85.55
2018-09-03T23:59:23.375Z,85.73
